createdAt,value
2019-04-21T00:00:13.805Z,0
2019-04-21T00:01:25.996Z,0
2019-04-21T00:02:38.191Z,0
2019-04-21T00:03:50.394Z,0
2019-04-21T00:05:02.585Z,0
2019-04-21T00:06:14.779Z,0
2019-04-21T00:07:26.974Z,0
2019-04-21T00:08:39.169Z,0
2019-04-21T00:09:51.372Z,0
2019-04-21T00:11:03.562Z,0
2019-04-21T00:12:15.759Z,0
2019-04-21T00:14:40.144Z,0
2019-04-21T00:15:52.334Z,0
2019-04-21T00:17:04.540Z,0
2019-04-21T00:18:16.728Z,0
2019-04-21T00:19:28.092Z,0
2019-04-21T00:20:41.126Z,0
2019-04-21T00:21:53.000Z,0
2019-04-21T00:23:05.535Z,0
2019-04-21T00:24:17.709Z,0
2019-04-21T00:25:29.900Z,0
2019-04-21T00:26:42.098Z,0
2019-04-21T00:27:54.293Z,0
2019-04-21T00:29:06.488Z,0
2019-04-21T00:30:18.679Z,0
2019-04-21T00:31:30.876Z,0
2019-04-21T00:32:43.071Z,0
2019-04-21T00:33:55.273Z,0
2019-04-21T00:35:07.459Z,0
2019-04-21T00:36:19.065Z,0
2019-04-21T00:37:31.858Z,0
2019-04-21T00:38:44.044Z,0
2019-04-21T00:39:56.257Z,0
2019-04-21T00:41:08.768Z,0
2019-04-21T00:42:20.636Z,0
2019-04-21T00:43:32.825Z,0
2019-04-21T00:44:45.002Z,0
2019-04-21T00:45:57.223Z,0
2019-04-21T00:47:09.414Z,0
2019-04-21T00:48:21.622Z,0
2019-04-21T00:49:33.802Z,0
2019-04-21T00:50:45.099Z,0
2019-04-21T00:51:58.226Z,0
2019-04-21T00:53:10.391Z,0
2019-04-21T00:54:22.586Z,0
2019-04-21T00:55:34.078Z,0
2019-04-21T00:56:46.981Z,0
2019-04-21T00:57:59.172Z,0
2019-04-21T00:59:11.358Z,0
2019-04-21T01:00:23.567Z,0
2019-04-21T01:02:47.959Z,0
2019-04-21T01:04:00.149Z,0
2019-04-21T01:05:12.340Z,0
2019-04-21T01:06:24.537Z,0
2019-04-21T01:07:36.729Z,0
2019-04-21T01:08:48.933Z,0
2019-04-21T01:10:01.119Z,0
2019-04-21T01:11:13.319Z,0
2019-04-21T01:12:25.539Z,0
2019-04-21T01:13:37.708Z,0
2019-04-21T01:14:49.899Z,0
2019-04-21T01:16:02.103Z,0
2019-04-21T01:17:14.291Z,0
2019-04-21T01:18:26.483Z,0
2019-04-21T01:19:38.688Z,0
2019-04-21T01:20:50.088Z,0
2019-04-21T01:22:03.109Z,0
2019-04-21T01:23:15.274Z,0
2019-04-21T01:24:27.464Z,0
2019-04-21T01:25:39.000Z,0
2019-04-21T01:26:51.854Z,0
2019-04-21T01:28:04.057Z,0
2019-04-21T01:29:16.245Z,0
2019-04-21T01:30:28.442Z,0
2019-04-21T01:31:40.641Z,0
2019-04-21T01:32:52.083Z,0
2019-04-21T01:34:05.000Z,0
2019-04-21T01:35:17.222Z,0
2019-04-21T01:36:29.422Z,0
2019-04-21T01:37:41.618Z,0
2019-04-21T01:38:53.806Z,0
2019-04-21T01:40:06.009Z,0
2019-04-21T01:41:18.202Z,0
2019-04-21T01:42:30.397Z,0
2019-04-21T01:44:54.798Z,0
2019-04-21T01:46:06.986Z,0
2019-04-21T01:47:19.174Z,0
2019-04-21T01:48:31.391Z,0
2019-04-21T01:49:43.569Z,0
2019-04-21T01:50:55.077Z,0
2019-04-21T01:52:07.962Z,0
2019-04-21T01:53:20.151Z,0
2019-04-21T01:54:32.341Z,0
2019-04-21T01:55:44.552Z,0
2019-04-21T01:56:56.743Z,0
2019-04-21T01:58:08.933Z,0
2019-04-21T01:59:21.121Z,0
2019-04-21T02:00:33.313Z,0
2019-04-21T02:01:45.509Z,0
2019-04-21T02:02:57.696Z,0
2019-04-21T02:04:09.894Z,0
2019-04-21T02:05:22.083Z,0
2019-04-21T02:06:34.277Z,0
2019-04-21T02:07:46.470Z,0
2019-04-21T02:08:58.670Z,0
2019-04-21T02:10:10.864Z,0
2019-04-21T02:11:23.052Z,0
2019-04-21T02:12:35.247Z,0
2019-04-21T02:13:47.451Z,0
2019-04-21T02:14:59.635Z,0
2019-04-21T02:16:11.822Z,0
2019-04-21T02:17:24.018Z,0
2019-04-21T02:18:36.213Z,0
2019-04-21T02:19:48.409Z,0
2019-04-21T02:21:00.059Z,0
2019-04-21T02:22:12.799Z,0
2019-04-21T02:23:25.052Z,0
2019-04-21T02:24:37.189Z,0
2019-04-21T02:25:49.379Z,0
2019-04-21T02:27:01.568Z,0
2019-04-21T02:28:13.767Z,0
2019-04-21T02:29:25.958Z,0
2019-04-21T02:30:38.157Z,0
2019-04-21T02:31:50.355Z,0
2019-04-21T02:33:02.539Z,0
2019-04-21T02:34:14.753Z,0
2019-04-21T02:35:26.930Z,0
2019-04-21T02:37:51.316Z,0
2019-04-21T02:39:03.502Z,0
2019-04-21T02:40:15.700Z,0
2019-04-21T02:41:27.895Z,0
2019-04-21T02:42:40.085Z,0
2019-04-21T02:43:52.282Z,0
2019-04-21T02:45:04.481Z,0
2019-04-21T02:46:16.666Z,0
2019-04-21T02:47:28.872Z,0
2019-04-21T02:48:41.056Z,0
2019-04-21T02:51:05.448Z,0
2019-04-21T02:52:17.632Z,0
2019-04-21T02:53:29.823Z,0
2019-04-21T02:54:42.028Z,0
2019-04-21T02:57:06.408Z,0
2019-04-21T02:58:18.604Z,0
2019-04-21T02:59:30.799Z,0
2019-04-21T03:00:42.988Z,0
2019-04-21T03:01:55.185Z,0
2019-04-21T03:04:19.568Z,0
2019-04-21T03:05:31.759Z,0
2019-04-21T03:06:43.095Z,0
2019-04-21T03:07:56.144Z,0
2019-04-21T03:09:08.342Z,0
2019-04-21T03:10:20.540Z,0
2019-04-21T03:11:32.074Z,0
2019-04-21T03:12:44.936Z,0
2019-04-21T03:13:57.116Z,0
2019-04-21T03:15:09.317Z,0
2019-04-21T03:16:21.509Z,0
2019-04-21T03:17:33.070Z,0
2019-04-21T03:18:45.089Z,0
2019-04-21T03:19:58.092Z,0
2019-04-21T03:21:10.283Z,0
2019-04-21T03:22:22.480Z,0
2019-04-21T03:23:34.666Z,0
2019-04-21T03:24:46.862Z,0
2019-04-21T03:25:59.054Z,0
2019-04-21T03:27:11.252Z,0
2019-04-21T03:28:23.446Z,0
2019-04-21T03:29:35.640Z,0
2019-04-21T03:30:47.082Z,0
2019-04-21T03:32:00.023Z,0
2019-04-21T03:33:12.221Z,0
2019-04-21T03:34:24.413Z,0
2019-04-21T03:35:36.612Z,0
2019-04-21T03:36:48.080Z,0
2019-04-21T03:38:00.990Z,0
2019-04-21T03:39:13.186Z,0
2019-04-21T03:40:25.378Z,4
2019-04-21T03:41:37.581Z,4
2019-04-21T03:42:49.776Z,0
2019-04-21T03:44:01.951Z,0
2019-04-21T03:46:26.347Z,0
2019-04-21T03:47:38.544Z,4
2019-04-21T03:48:50.737Z,4
2019-04-21T03:50:02.924Z,4
2019-04-21T03:52:27.318Z,4
2019-04-21T03:53:39.500Z,8
2019-04-21T03:54:51.704Z,8
2019-04-21T03:56:03.892Z,12
2019-04-21T03:57:16.088Z,12
2019-04-21T03:58:28.284Z,12
2019-04-21T03:59:40.479Z,16
2019-04-21T04:00:52.664Z,16
2019-04-21T04:03:17.050Z,16
2019-04-21T04:04:29.245Z,20
2019-04-21T04:05:41.440Z,20
2019-04-21T04:06:53.630Z,24
2019-04-21T04:08:05.828Z,24
2019-04-21T04:09:18.024Z,24
2019-04-21T04:10:30.021Z,28
2019-04-21T04:11:42.405Z,32
2019-04-21T04:12:54.607Z,32
2019-04-21T04:15:18.990Z,36
2019-04-21T04:16:31.179Z,36
2019-04-21T04:18:55.572Z,44
2019-04-21T04:20:07.000Z,44
2019-04-21T04:21:19.959Z,48
2019-04-21T04:22:32.169Z,48
2019-04-21T04:23:44.348Z,52
2019-04-21T04:24:56.540Z,56
2019-04-21T04:27:20.000Z,60
2019-04-21T04:28:33.121Z,60
2019-04-21T04:29:45.323Z,64
2019-04-21T04:30:57.509Z,64
2019-04-21T04:32:09.705Z,68
2019-04-21T04:33:21.897Z,68
2019-04-21T04:34:34.106Z,68
2019-04-21T04:35:46.289Z,72
2019-04-21T04:36:58.479Z,76
2019-04-21T04:39:22.870Z,80
2019-04-21T04:40:35.052Z,80
2019-04-21T04:41:47.024Z,84
2019-04-21T04:42:59.452Z,84
2019-04-21T04:44:11.640Z,84
2019-04-21T04:45:23.083Z,88
2019-04-21T04:46:36.034Z,88
2019-04-21T04:47:48.214Z,88
2019-04-21T04:49:00.413Z,88
2019-04-21T04:51:24.799Z,92
2019-04-21T04:52:36.999Z,92
2019-04-21T04:53:49.186Z,92
2019-04-21T04:55:01.379Z,96
2019-04-21T04:56:13.573Z,96
2019-04-21T04:57:25.769Z,100
2019-04-21T04:58:37.959Z,100
2019-04-21T04:59:50.179Z,104
2019-04-21T05:01:02.349Z,104
2019-04-21T05:03:26.734Z,108
2019-04-21T05:04:38.929Z,108
2019-04-21T05:05:51.121Z,108
2019-04-21T05:07:03.331Z,112
2019-04-21T05:08:15.513Z,112
2019-04-21T05:09:27.699Z,112
2019-04-21T05:10:39.088Z,116
2019-04-21T05:11:52.090Z,116
2019-04-21T05:13:04.287Z,120
2019-04-21T05:16:40.864Z,120
2019-04-21T05:17:53.054Z,124
2019-04-21T05:19:05.242Z,124
2019-04-21T05:21:29.630Z,124
2019-04-21T05:22:41.083Z,128
2019-04-21T05:23:54.023Z,128
2019-04-21T05:25:06.219Z,128
2019-04-21T05:26:18.415Z,128
2019-04-21T05:27:30.608Z,128
2019-04-21T05:28:42.801Z,132
2019-04-21T05:29:54.991Z,128
2019-04-21T05:31:07.182Z,132
2019-04-21T05:32:19.381Z,132
2019-04-21T05:33:31.593Z,136
2019-04-21T05:35:55.095Z,136
2019-04-21T05:37:08.151Z,136
2019-04-21T05:38:20.353Z,136
2019-04-21T05:39:32.541Z,136
2019-04-21T05:40:44.733Z,140
2019-04-21T05:41:56.940Z,136
2019-04-21T05:43:09.124Z,140
2019-04-21T05:44:21.342Z,140
2019-04-21T05:45:33.505Z,140
2019-04-21T05:47:57.894Z,144
2019-04-21T05:49:10.084Z,140
2019-04-21T05:50:22.283Z,144
2019-04-21T05:51:34.474Z,148
2019-04-21T05:52:46.670Z,144
2019-04-21T05:53:58.870Z,148
2019-04-21T05:55:11.061Z,148
2019-04-21T05:56:23.249Z,148
2019-04-21T05:57:35.443Z,148
2019-04-21T05:58:47.643Z,148
2019-04-21T05:59:59.829Z,152
2019-04-21T06:01:12.026Z,148
2019-04-21T06:02:24.220Z,152
2019-04-21T06:03:36.419Z,148
2019-04-21T06:04:48.610Z,152
2019-04-21T06:06:00.801Z,152
2019-04-21T06:07:12.999Z,152
2019-04-21T06:08:25.187Z,156
2019-04-21T06:09:37.381Z,152
2019-04-21T06:12:01.772Z,152
2019-04-21T06:13:13.965Z,156
2019-04-21T06:14:26.164Z,156
2019-04-21T06:15:38.358Z,156
2019-04-21T06:16:50.548Z,156
2019-04-21T06:18:02.740Z,156
2019-04-21T06:19:14.931Z,160
2019-04-21T06:20:27.127Z,156
2019-04-21T06:21:39.315Z,160
2019-04-21T06:22:51.520Z,160
2019-04-21T06:24:03.000Z,160
2019-04-21T06:25:15.896Z,160
2019-04-21T06:27:40.329Z,160
2019-04-21T06:28:52.482Z,160
2019-04-21T06:30:04.000Z,164
2019-04-21T06:31:16.868Z,164
2019-04-21T06:32:29.065Z,164
2019-04-21T06:33:41.256Z,164
2019-04-21T06:34:53.447Z,164
2019-04-21T06:36:05.643Z,168
2019-04-21T06:38:30.036Z,168
2019-04-21T06:39:42.219Z,164
2019-04-21T06:40:54.420Z,168
2019-04-21T06:43:18.806Z,168
2019-04-21T06:44:30.992Z,168
2019-04-21T06:45:43.190Z,168
2019-04-21T06:46:55.385Z,168
2019-04-21T06:48:07.572Z,168
2019-04-21T06:49:19.000Z,172
2019-04-21T06:50:31.096Z,168
2019-04-21T06:51:44.001Z,172
2019-04-21T06:52:56.373Z,168
2019-04-21T06:54:08.544Z,172
2019-04-21T06:55:20.754Z,168
2019-04-21T06:56:32.930Z,172
2019-04-21T06:57:45.012Z,172
2019-04-21T06:58:57.318Z,172
2019-04-21T07:00:09.526Z,176
2019-04-21T07:01:21.710Z,172
2019-04-21T07:02:33.916Z,176
2019-04-21T07:03:46.100Z,176
2019-04-21T07:04:58.286Z,176
2019-04-21T07:06:10.501Z,176
2019-04-21T07:07:22.682Z,176
2019-04-21T07:08:34.892Z,176
2019-04-21T07:09:47.063Z,176
2019-04-21T07:10:59.255Z,176
2019-04-21T07:12:11.576Z,176
2019-04-21T07:13:23.643Z,180
2019-04-21T07:14:35.843Z,176
2019-04-21T07:17:00.280Z,180
2019-04-21T07:18:12.422Z,180
2019-04-21T07:19:24.620Z,180
2019-04-21T07:20:36.810Z,184
2019-04-21T07:21:49.001Z,180
2019-04-21T07:23:01.194Z,184
2019-04-21T07:24:13.392Z,184
2019-04-21T07:25:25.594Z,180
2019-04-21T07:26:37.799Z,184
2019-04-21T07:27:49.972Z,180
2019-04-21T07:29:02.168Z,184
2019-04-21T07:30:14.440Z,184
2019-04-21T07:31:26.555Z,184
2019-04-21T07:32:38.745Z,188
2019-04-21T07:33:50.940Z,184
2019-04-21T07:35:03.136Z,188
2019-04-21T07:36:15.328Z,184
2019-04-21T07:37:27.525Z,184
2019-04-21T07:38:39.709Z,188
2019-04-21T07:39:51.909Z,188
2019-04-21T07:41:04.102Z,188
2019-04-21T07:42:16.290Z,188
2019-04-21T07:43:28.500Z,188
2019-04-21T07:44:40.678Z,188
2019-04-21T07:45:52.872Z,188
2019-04-21T07:47:05.071Z,192
2019-04-21T07:48:17.261Z,188
2019-04-21T07:49:29.454Z,192
2019-04-21T07:50:41.658Z,192
2019-04-21T07:51:53.843Z,192
2019-04-21T07:53:06.036Z,192
2019-04-21T07:54:18.251Z,192
2019-04-21T07:55:30.423Z,192
2019-04-21T07:56:42.655Z,196
2019-04-21T07:57:54.818Z,192
2019-04-21T07:59:07.013Z,196
2019-04-21T08:00:19.201Z,196
2019-04-21T08:01:31.395Z,192
2019-04-21T08:02:43.585Z,196
2019-04-21T08:03:55.777Z,196
2019-04-21T08:05:07.975Z,196
2019-04-21T08:06:20.163Z,196
2019-04-21T08:07:32.361Z,196
2019-04-21T08:08:44.570Z,196
2019-04-21T08:09:56.744Z,196
2019-04-21T08:11:08.009Z,200
2019-04-21T08:12:21.001Z,200
2019-04-21T08:13:33.330Z,200
2019-04-21T08:14:45.523Z,200
2019-04-21T08:15:57.711Z,200
2019-04-21T08:17:09.912Z,200
2019-04-21T08:18:22.106Z,204
2019-04-21T08:19:34.296Z,204
2019-04-21T08:20:46.489Z,204
2019-04-21T08:21:58.686Z,204
2019-04-21T08:23:10.880Z,204
2019-04-21T08:24:23.072Z,204
2019-04-21T08:25:35.265Z,204
2019-04-21T08:27:59.658Z,208
2019-04-21T08:29:11.840Z,208
2019-04-21T08:31:36.241Z,208
2019-04-21T08:32:48.427Z,208
2019-04-21T08:34:00.620Z,208
2019-04-21T08:35:12.815Z,208
2019-04-21T08:36:25.001Z,208
2019-04-21T08:37:37.199Z,212
2019-04-21T08:38:49.039Z,208
2019-04-21T08:41:13.781Z,212
2019-04-21T08:42:25.979Z,212
2019-04-21T08:43:38.180Z,212
2019-04-21T08:44:50.435Z,212
2019-04-21T08:46:02.558Z,212
2019-04-21T08:47:14.803Z,216
2019-04-21T08:48:26.947Z,216
2019-04-21T08:49:39.135Z,216
2019-04-21T08:50:51.337Z,216
2019-04-21T08:52:03.532Z,216
2019-04-21T08:53:15.723Z,216
2019-04-21T08:54:27.913Z,220
2019-04-21T08:55:40.109Z,216
2019-04-21T08:56:52.302Z,216
2019-04-21T08:58:04.494Z,220
2019-04-21T08:59:16.068Z,220
2019-04-21T09:00:28.887Z,220
2019-04-21T09:01:41.007Z,220
2019-04-21T09:02:53.282Z,220
2019-04-21T09:04:05.492Z,220
2019-04-21T09:05:17.657Z,220
2019-04-21T09:06:29.846Z,224
2019-04-21T09:07:42.063Z,224
2019-04-21T09:08:54.241Z,224
2019-04-21T09:10:06.429Z,224
2019-04-21T09:11:18.632Z,224
2019-04-21T09:12:30.817Z,224
2019-04-21T09:13:43.002Z,224
2019-04-21T09:14:55.212Z,228
2019-04-21T09:16:07.004Z,228
2019-04-21T09:17:19.059Z,228
2019-04-21T09:18:31.782Z,228
2019-04-21T09:19:43.978Z,228
2019-04-21T09:20:56.016Z,228
2019-04-21T09:22:08.369Z,232
2019-04-21T09:23:20.569Z,228
2019-04-21T09:24:32.760Z,228
2019-04-21T09:28:09.332Z,232
2019-04-21T09:29:21.537Z,232
2019-04-21T09:30:33.720Z,232
2019-04-21T09:31:45.092Z,232
2019-04-21T09:32:58.119Z,236
2019-04-21T09:34:10.320Z,232
2019-04-21T09:35:22.501Z,232
2019-04-21T09:36:34.694Z,232
2019-04-21T09:37:46.897Z,236
2019-04-21T09:40:11.269Z,236
2019-04-21T09:41:23.472Z,232
2019-04-21T09:42:35.662Z,236
2019-04-21T09:43:47.858Z,236
2019-04-21T09:45:00.046Z,236
2019-04-21T09:46:12.243Z,236
2019-04-21T09:47:24.449Z,236
2019-04-21T09:48:36.637Z,240
2019-04-21T09:49:48.081Z,236
2019-04-21T09:51:01.015Z,240
2019-04-21T09:52:13.209Z,236
2019-04-21T09:53:25.409Z,240
2019-04-21T09:54:37.597Z,236
2019-04-21T09:55:49.007Z,240
2019-04-21T09:57:01.988Z,240
2019-04-21T09:58:14.180Z,240
2019-04-21T09:59:26.372Z,240
2019-04-21T10:00:38.568Z,244
2019-04-21T10:01:51.129Z,240
2019-04-21T10:03:02.954Z,240
2019-04-21T10:04:15.145Z,240
2019-04-21T10:05:27.337Z,240
2019-04-21T10:06:39.534Z,244
2019-04-21T10:07:51.759Z,244
2019-04-21T10:09:03.917Z,244
2019-04-21T10:10:16.119Z,248
2019-04-21T10:11:28.304Z,244
2019-04-21T10:12:40.505Z,248
2019-04-21T10:13:52.713Z,248
2019-04-21T10:15:04.884Z,248
2019-04-21T10:16:17.084Z,248
2019-04-21T10:17:29.298Z,248
2019-04-21T10:19:53.659Z,248
2019-04-21T10:21:05.086Z,248
2019-04-21T10:22:18.044Z,248
2019-04-21T10:23:30.241Z,248
2019-04-21T10:24:42.438Z,252
2019-04-21T10:25:54.628Z,252
2019-04-21T10:27:06.083Z,252
2019-04-21T10:28:19.002Z,252
2019-04-21T10:29:31.021Z,252
2019-04-21T10:30:43.404Z,256
2019-04-21T10:31:55.600Z,256
2019-04-21T10:33:07.793Z,252
2019-04-21T10:34:19.987Z,256
2019-04-21T10:35:32.017Z,256
2019-04-21T10:36:44.371Z,256
2019-04-21T10:37:56.562Z,256
2019-04-21T10:40:20.951Z,256
2019-04-21T10:41:33.148Z,260
2019-04-21T10:42:45.345Z,260
2019-04-21T10:43:57.528Z,260
2019-04-21T10:45:09.729Z,260
2019-04-21T10:46:21.918Z,260
2019-04-21T10:47:34.111Z,264
2019-04-21T10:48:46.307Z,260
2019-04-21T10:49:58.499Z,260
2019-04-21T10:51:10.703Z,264
2019-04-21T10:52:22.893Z,264
2019-04-21T10:53:35.080Z,260
2019-04-21T10:54:47.272Z,260
2019-04-21T10:55:59.047Z,264
2019-04-21T10:57:11.663Z,264
2019-04-21T10:58:23.008Z,264
2019-04-21T10:59:36.152Z,264
2019-04-21T11:00:48.385Z,268
2019-04-21T11:02:00.438Z,268
2019-04-21T11:03:12.062Z,268
2019-04-21T11:04:24.824Z,268
2019-04-21T11:05:37.080Z,268
2019-04-21T11:06:49.216Z,268
2019-04-21T11:08:01.407Z,268
2019-04-21T11:09:13.596Z,272
2019-04-21T11:10:25.804Z,268
2019-04-21T11:11:37.984Z,272
2019-04-21T11:12:50.178Z,276
2019-04-21T11:15:14.005Z,272
2019-04-21T11:16:26.771Z,276
2019-04-21T11:17:38.978Z,280
2019-04-21T11:18:51.150Z,276
2019-04-21T11:20:03.360Z,276
2019-04-21T11:21:15.549Z,276
2019-04-21T11:23:39.921Z,284
2019-04-21T11:24:52.116Z,280
2019-04-21T11:26:04.350Z,284
2019-04-21T11:27:16.502Z,284
2019-04-21T11:28:28.705Z,284
2019-04-21T11:29:40.897Z,288
2019-04-21T11:30:53.009Z,288
2019-04-21T11:32:05.280Z,284
2019-04-21T11:33:17.478Z,288
2019-04-21T11:34:29.673Z,292
2019-04-21T11:35:41.865Z,288
2019-04-21T11:36:54.066Z,288
2019-04-21T11:39:18.455Z,292
2019-04-21T11:40:30.647Z,288
2019-04-21T11:41:42.848Z,292
2019-04-21T11:42:55.034Z,292
2019-04-21T11:44:07.236Z,292
2019-04-21T11:45:19.004Z,292
2019-04-21T11:46:31.624Z,296
2019-04-21T11:47:43.082Z,296
2019-04-21T11:48:56.011Z,296
2019-04-21T11:50:08.203Z,296
2019-04-21T11:51:20.396Z,300
2019-04-21T11:52:32.596Z,300
2019-04-21T11:54:56.981Z,304
2019-04-21T11:56:09.178Z,308
2019-04-21T11:57:21.380Z,304
2019-04-21T11:58:33.574Z,308
2019-04-21T11:59:45.763Z,308
2019-04-21T12:00:57.956Z,308
2019-04-21T12:02:10.162Z,312
2019-04-21T12:03:22.353Z,312
2019-04-21T12:04:34.555Z,312
2019-04-21T12:05:46.741Z,316
2019-04-21T12:06:58.936Z,316
2019-04-21T12:08:11.132Z,320
2019-04-21T12:09:23.333Z,320
2019-04-21T12:10:35.517Z,320
2019-04-21T12:11:47.720Z,320
2019-04-21T12:12:59.909Z,324
2019-04-21T12:14:12.103Z,324
2019-04-21T12:15:24.307Z,328
2019-04-21T12:16:36.492Z,328
2019-04-21T12:17:48.695Z,328
2019-04-21T12:19:00.895Z,328
2019-04-21T12:20:13.086Z,328
2019-04-21T12:21:25.002Z,332
2019-04-21T12:22:37.474Z,332
2019-04-21T12:23:49.674Z,336
2019-04-21T12:25:01.861Z,340
2019-04-21T12:26:14.067Z,340
2019-04-21T12:28:38.450Z,344
2019-04-21T12:29:50.646Z,348
2019-04-21T12:31:02.838Z,348
2019-04-21T12:32:15.036Z,348
2019-04-21T12:33:27.233Z,356
2019-04-21T12:34:39.422Z,360
2019-04-21T12:35:51.611Z,364
2019-04-21T12:37:03.818Z,372
2019-04-21T12:38:16.018Z,376
2019-04-21T12:39:28.283Z,380
2019-04-21T12:40:40.398Z,384
2019-04-21T12:41:52.591Z,388
2019-04-21T12:43:04.795Z,396
2019-04-21T12:44:16.982Z,408
2019-04-21T12:45:29.001Z,412
2019-04-21T12:46:41.366Z,424
2019-04-21T12:47:53.568Z,432
2019-04-21T12:49:05.762Z,444
2019-04-21T12:52:42.348Z,476
2019-04-21T12:53:54.543Z,484
2019-04-21T12:55:06.732Z,488
2019-04-21T12:56:18.935Z,500
2019-04-21T12:57:31.124Z,508
2019-04-21T12:58:43.000Z,524
2019-04-21T12:59:55.516Z,532
2019-04-21T13:01:07.718Z,548
2019-04-21T13:02:19.906Z,556
2019-04-21T13:03:32.100Z,568
2019-04-21T13:04:44.300Z,584
2019-04-21T13:05:56.528Z,596
2019-04-21T13:07:08.685Z,612
2019-04-21T13:08:20.887Z,624
2019-04-21T13:09:33.074Z,640
2019-04-21T13:10:45.271Z,652
2019-04-21T13:11:57.461Z,668
2019-04-21T13:13:09.680Z,684
2019-04-21T13:14:21.857Z,696
2019-04-21T13:16:46.247Z,720
2019-04-21T13:17:58.443Z,732
2019-04-21T13:19:10.640Z,744
2019-04-21T13:20:22.834Z,756
2019-04-21T13:21:35.035Z,768
2019-04-21T13:22:47.221Z,780
2019-04-21T13:23:59.419Z,788
2019-04-21T13:25:11.610Z,800
2019-04-21T13:26:23.080Z,816
2019-04-21T13:27:36.000Z,832
2019-04-21T13:28:48.198Z,840
2019-04-21T13:30:00.397Z,852
2019-04-21T13:31:12.583Z,864
2019-04-21T13:32:24.781Z,884
2019-04-21T13:33:36.981Z,892
2019-04-21T13:34:49.016Z,904
2019-04-21T13:36:01.365Z,920
2019-04-21T13:37:13.000Z,932
2019-04-21T13:38:25.754Z,964
2019-04-21T13:39:37.954Z,976
2019-04-21T13:40:50.014Z,984
2019-04-21T13:42:02.336Z,1012
2019-04-21T13:43:14.535Z,1020
2019-04-21T13:44:26.734Z,1040
2019-04-21T13:45:38.009Z,1080
2019-04-21T13:46:51.122Z,1096
2019-04-21T13:48:03.343Z,1120
2019-04-21T13:49:15.510Z,1128
2019-04-21T13:50:27.714Z,1140
2019-04-21T13:51:39.899Z,1156
2019-04-21T13:52:52.105Z,1176
2019-04-21T13:54:04.287Z,1212
2019-04-21T13:55:16.492Z,1260
2019-04-21T13:56:28.679Z,1304
2019-04-21T13:57:40.882Z,1364
2019-04-21T13:58:53.071Z,1476
2019-04-21T14:00:05.270Z,1620
2019-04-21T14:01:17.459Z,1876
2019-04-21T14:02:29.658Z,2124
2019-04-21T14:03:41.851Z,2236
2019-04-21T14:04:54.040Z,2380
2019-04-21T14:06:06.237Z,2748
2019-04-21T14:07:18.437Z,16384
2019-04-21T14:08:30.632Z,41280
2019-04-21T14:09:42.828Z,44192
2019-04-21T14:10:55.018Z,40288
2019-04-21T14:12:07.021Z,39200
2019-04-21T14:13:19.410Z,38336
2019-04-21T14:14:31.600Z,38432
2019-04-21T14:16:56.004Z,32256
2019-04-21T14:18:08.186Z,35296
2019-04-21T14:19:20.038Z,30976
2019-04-21T14:20:32.058Z,10152
2019-04-21T14:21:44.772Z,3244
2019-04-21T14:22:56.974Z,2840
2019-04-21T14:25:21.365Z,2468
2019-04-21T14:26:33.560Z,2428
2019-04-21T14:28:57.953Z,2180
2019-04-21T14:30:10.136Z,2236
2019-04-21T14:31:22.338Z,2124
2019-04-21T14:32:34.052Z,2172
2019-04-21T14:33:46.072Z,2068
2019-04-21T14:34:58.922Z,1972
2019-04-21T14:36:11.119Z,1908
2019-04-21T14:38:35.513Z,1800
2019-04-21T14:39:47.703Z,1764
2019-04-21T14:40:59.090Z,1720
2019-04-21T14:42:12.095Z,1688
2019-04-21T14:43:24.028Z,1748
2019-04-21T14:44:36.486Z,1764
2019-04-21T14:45:48.679Z,1812
2019-04-21T14:47:00.877Z,1856
2019-04-21T14:48:13.071Z,1940
2019-04-21T14:49:25.283Z,2012
2019-04-21T14:50:37.468Z,2120
2019-04-21T14:51:49.655Z,2208
2019-04-21T14:53:01.865Z,2320
2019-04-21T14:54:14.044Z,2468
2019-04-21T14:55:26.024Z,2620
2019-04-21T14:56:38.449Z,2700
2019-04-21T14:57:50.631Z,2932
2019-04-21T14:59:02.828Z,3116
2019-04-21T15:00:15.020Z,3368
2019-04-21T15:01:27.217Z,3608
2019-04-21T15:02:39.415Z,3860
2019-04-21T15:05:03.797Z,4592
2019-04-21T15:06:16.000Z,5004
2019-04-21T15:07:28.195Z,5332
2019-04-21T15:08:40.394Z,5616
2019-04-21T15:09:52.582Z,5992
2019-04-21T15:11:04.780Z,6380
2019-04-21T15:12:16.976Z,6648
2019-04-21T15:13:29.016Z,6656
2019-04-21T15:14:41.364Z,6804
2019-04-21T15:15:53.554Z,7044
2019-04-21T15:17:05.752Z,7276
2019-04-21T15:18:17.009Z,7476
2019-04-21T15:19:30.149Z,7680
2019-04-21T15:20:42.337Z,7772
2019-04-21T15:21:54.546Z,7888
2019-04-21T15:23:06.730Z,7972
2019-04-21T15:24:18.928Z,8096
2019-04-21T15:25:31.115Z,8092
2019-04-21T15:26:43.030Z,7936
2019-04-21T15:27:55.540Z,7836
2019-04-21T15:29:07.707Z,7852
2019-04-21T15:30:19.896Z,7632
2019-04-21T15:31:32.091Z,7484
2019-04-21T15:33:56.484Z,7724
2019-04-21T15:35:08.682Z,7536
2019-04-21T15:36:20.879Z,7780
2019-04-21T15:37:33.085Z,7628
2019-04-21T15:38:45.812Z,7244
2019-04-21T15:39:57.460Z,6852
2019-04-21T15:41:09.655Z,6388
2019-04-21T15:42:21.857Z,5872
2019-04-21T15:43:34.047Z,5368
2019-04-21T15:44:46.250Z,5048
2019-04-21T15:47:10.630Z,4480
2019-04-21T15:48:22.823Z,4204
2019-04-21T15:49:35.027Z,4012
2019-04-21T15:50:47.219Z,3832
2019-04-21T15:51:59.408Z,3664
2019-04-21T15:53:11.614Z,3540
2019-04-21T15:54:23.800Z,3472
2019-04-21T15:55:36.001Z,3400
2019-04-21T15:56:48.192Z,3292
2019-04-21T15:58:00.391Z,3208
2019-04-21T15:59:12.599Z,3204
2019-04-21T16:00:24.782Z,3132
2019-04-21T16:01:36.979Z,3080
2019-04-21T16:02:49.200Z,3048
2019-04-21T16:04:01.383Z,3072
2019-04-21T16:05:13.056Z,3100
2019-04-21T16:06:25.075Z,3084
2019-04-21T16:07:37.095Z,2968
2019-04-21T16:08:50.155Z,2884
2019-04-21T16:10:02.345Z,2872
2019-04-21T16:11:14.054Z,2980
2019-04-21T16:12:26.738Z,3052
2019-04-21T16:13:38.935Z,3116
2019-04-21T16:14:51.129Z,3072
2019-04-21T16:16:03.328Z,3048
2019-04-21T16:17:15.519Z,3008
2019-04-21T16:18:27.723Z,3024
2019-04-21T16:19:39.090Z,3096
2019-04-21T16:20:52.105Z,3172
2019-04-21T16:22:04.299Z,3228
2019-04-21T16:23:16.500Z,3296
2019-04-21T16:24:28.691Z,3352
2019-04-21T16:25:40.908Z,3372
2019-04-21T16:26:53.091Z,3352
2019-04-21T16:28:05.283Z,3392
2019-04-21T16:29:17.636Z,3464
2019-04-21T16:30:29.671Z,3536
2019-04-21T16:31:41.872Z,3516
2019-04-21T16:32:54.070Z,3560
2019-04-21T16:34:06.264Z,3532
2019-04-21T16:35:18.449Z,3624
2019-04-21T16:36:30.650Z,3636
2019-04-21T16:37:42.851Z,3644
2019-04-21T16:40:07.242Z,3568
2019-04-21T16:41:19.431Z,3560
2019-04-21T16:42:31.634Z,3568
2019-04-21T16:43:43.830Z,3552
2019-04-21T16:44:56.000Z,3492
2019-04-21T16:46:08.215Z,3584
2019-04-21T16:47:20.410Z,3504
2019-04-21T16:48:32.605Z,3380
2019-04-21T16:49:44.888Z,3224
2019-04-21T16:50:56.999Z,3036
2019-04-21T16:53:21.387Z,2576
2019-04-21T16:54:33.586Z,2372
2019-04-21T16:55:45.777Z,2256
2019-04-21T16:56:57.977Z,2112
2019-04-21T16:58:10.017Z,1992
2019-04-21T16:59:22.369Z,1912
2019-04-21T17:00:34.567Z,1856
2019-04-21T17:01:46.076Z,1788
2019-04-21T17:02:58.984Z,1744
2019-04-21T17:05:23.351Z,1596
2019-04-21T17:06:35.542Z,1484
2019-04-21T17:07:47.739Z,1368
2019-04-21T17:08:59.938Z,1256
2019-04-21T17:10:12.130Z,1180
2019-04-21T17:11:24.322Z,1100
2019-04-21T17:12:36.522Z,1024
2019-04-21T17:13:48.712Z,940
2019-04-21T17:15:00.909Z,884
2019-04-21T17:16:13.108Z,848
2019-04-21T17:17:25.306Z,804
2019-04-21T17:18:37.499Z,780
2019-04-21T17:19:49.689Z,756
2019-04-21T17:21:01.891Z,736
2019-04-21T17:22:14.089Z,740
2019-04-21T17:23:26.284Z,744
2019-04-21T17:24:38.474Z,708
2019-04-21T17:25:50.665Z,644
2019-04-21T17:27:02.865Z,568
2019-04-21T17:28:15.055Z,544
2019-04-21T17:30:39.475Z,508
2019-04-21T17:31:51.064Z,476
2019-04-21T17:33:03.845Z,448
2019-04-21T17:35:28.022Z,408
2019-04-21T17:37:52.655Z,344
2019-04-21T17:39:04.818Z,324
2019-04-21T17:40:17.019Z,312
2019-04-21T17:41:29.233Z,304
2019-04-21T17:42:41.405Z,300
2019-04-21T17:43:53.601Z,288
2019-04-21T17:45:05.902Z,272
2019-04-21T17:46:17.995Z,248
2019-04-21T17:47:30.191Z,224
2019-04-21T17:48:42.383Z,200
2019-04-21T17:49:54.575Z,180